createdAt,value
2019-01-16T00:01:35.998Z,99359.50
2019-01-16T00:04:21.328Z,99357.91
2019-01-16T00:07:23.457Z,99360.63
2019-01-16T00:10:04.031Z,99363.91
2019-01-16T00:12:53.102Z,99362.08
2019-01-16T00:15:42.173Z,99358.80
2019-01-16T00:18:21.167Z,99362.58
2019-01-16T00:21:25.413Z,99361.13
2019-01-16T00:24:13.302Z,99364.23
2019-01-16T00:27:11.825Z,99370.54
2019-01-16T00:29:51.661Z,99382.55
2019-01-16T00:32:39.725Z,99368.66
2019-01-16T00:35:37.693Z,99371.48
2019-01-16T00:38:19.077Z,99376.66
2019-01-16T00:41:06.207Z,99379.54
2019-01-16T00:44:10.440Z,99389.27
2019-01-16T00:46:53.010Z,99388.05
2019-01-16T00:49:29.688Z,99393.95
2019-01-16T00:52:19.662Z,99396.58
2019-01-16T00:55:11.561Z,99397.50
2019-01-16T00:57:58.812Z,99388.94
2019-01-16T01:00:50.977Z,99397.19
2019-01-16T01:03:49.182Z,99393.36
2019-01-16T01:06:44.326Z,99398.91
2019-01-16T01:09:42.100Z,99398.32
2019-01-16T01:12:44.355Z,99400.43
2019-01-16T01:15:42.629Z,99407.86
2019-01-16T01:18:32.347Z,99415.75
2019-01-16T01:21:27.533Z,99413.18
2019-01-16T01:24:15.420Z,99415.93
2019-01-16T01:27:00.659Z,99424.64
2019-01-16T01:29:40.434Z,99425.36
2019-01-16T01:32:26.800Z,99426.55
2019-01-16T01:35:14.804Z,99439.38
2019-01-16T01:38:02.478Z,99446.52
2019-01-16T01:40:49.078Z,99440.09
2019-01-16T01:43:35.368Z,99439.30
2019-01-16T01:46:23.106Z,99447.53
2019-01-16T01:49:15.023Z,99446.91
2019-01-16T01:51:57.466Z,99448.74
2019-01-16T01:54:45.436Z,99444.84
2019-01-16T01:57:33.709Z,99450.16
2019-01-16T02:00:27.593Z,99449.24
2019-01-16T02:03:16.751Z,99443.98
2019-01-16T02:06:01.493Z,99445.47
2019-01-16T02:08:53.871Z,99447.14
2019-01-16T02:11:59.028Z,99454.68
2019-01-16T02:14:47.069Z,99458.80
2019-01-16T02:17:45.360Z,99455.94
2019-01-16T02:20:53.061Z,99460.02
2019-01-16T02:23:45.462Z,99457.04
2019-01-16T02:26:35.150Z,99454.98
2019-01-16T02:29:22.845Z,99455.50
2019-01-16T02:32:11.940Z,99456.92
2019-01-16T02:34:59.736Z,99455.72
2019-01-16T02:37:55.706Z,99457.14
2019-01-16T02:40:43.433Z,99454.23
2019-01-16T02:43:31.781Z,99460.50
2019-01-16T02:46:16.849Z,99465.64
2019-01-16T02:49:00.951Z,99471.62
2019-01-16T02:51:55.893Z,99467.20
2019-01-16T02:54:43.986Z,99471.30
2019-01-16T02:57:26.246Z,99480.66
2019-01-16T03:00:09.161Z,99473.95
2019-01-16T03:02:57.732Z,99468.05
2019-01-16T03:05:42.581Z,99470.72
2019-01-16T03:08:22.652Z,99473.45
2019-01-16T03:11:10.818Z,99474.53
2019-01-16T03:13:59.452Z,99475.13
2019-01-16T03:16:57.832Z,99467.16
2019-01-16T03:19:43.900Z,99467.21
2019-01-16T03:22:37.375Z,99476.08
2019-01-16T03:25:17.750Z,99471.53
2019-01-16T03:28:18.979Z,99477.77
2019-01-16T03:31:05.781Z,99487.36
2019-01-16T03:34:08.029Z,99477.24
2019-01-16T03:36:56.025Z,99480.97
2019-01-16T03:39:45.136Z,99487.66
2019-01-16T03:42:34.189Z,99497.51
2019-01-16T03:45:20.804Z,99489.07
2019-01-16T03:48:12.668Z,99486.84
2019-01-16T03:51:04.812Z,99488.70
2019-01-16T03:53:56.727Z,99495.69
2019-01-16T03:56:45.828Z,99484.94
2019-01-16T03:59:53.549Z,99495.05
2019-01-16T04:02:45.792Z,99492.12
2019-01-16T04:05:23.837Z,99492.78
2019-01-16T04:08:22.155Z,99500.31
2019-01-16T04:11:13.421Z,99506.53
2019-01-16T04:14:01.992Z,99507.51
2019-01-16T04:16:48.890Z,99502.44
2019-01-16T04:19:55.645Z,99499.45
2019-01-16T04:22:44.704Z,99495.69
2019-01-16T04:25:32.765Z,99500.19
2019-01-16T04:28:20.607Z,99498.35
2019-01-16T04:31:09.712Z,99494.95
2019-01-16T04:33:51.969Z,99398.86
2019-01-16T04:36:45.881Z,99498.70
2019-01-16T04:39:30.530Z,99507.45
2019-01-16T04:42:17.757Z,99507.38
2019-01-16T04:45:05.553Z,99499.89
2019-01-16T04:47:52.607Z,99504.48
2019-01-16T04:50:40.307Z,99500.97
2019-01-16T04:53:27.670Z,99496.59
2019-01-16T04:56:28.883Z,99493.53
2019-01-16T04:59:07.838Z,99489.02
2019-01-16T05:02:05.876Z,99491.56
2019-01-16T05:04:54.418Z,99489.84
2019-01-16T05:07:55.621Z,99488.16
2019-01-16T05:10:53.644Z,99483.58
2019-01-16T05:13:41.665Z,99482.35
2019-01-16T05:16:29.691Z,99482.43
2019-01-16T05:19:18.588Z,99479.03
2019-01-16T05:21:57.020Z,99472.53
2019-01-16T05:25:01.527Z,99471.71
2019-01-16T05:27:56.344Z,99472.05
2019-01-16T05:30:48.486Z,99472.53
2019-01-16T05:33:40.362Z,99470.44
2019-01-16T05:36:31.710Z,99470.78
2019-01-16T05:39:19.820Z,99468.00
2019-01-16T05:42:06.382Z,99465.67
2019-01-16T05:44:54.169Z,99463.91
2019-01-16T05:47:35.182Z,99462.45
2019-01-16T05:50:24.559Z,99458.93
2019-01-16T05:53:04.377Z,99457.58
2019-01-16T05:55:52.341Z,99461.09
2019-01-16T05:58:46.394Z,99464.61
2019-01-16T06:01:41.649Z,99458.97
2019-01-16T06:04:39.428Z,99463.14
2019-01-16T06:07:36.243Z,99461.88
2019-01-16T06:10:27.735Z,99468.00
2019-01-16T06:13:22.617Z,99463.55
2019-01-16T06:16:17.757Z,99461.47
2019-01-16T06:19:07.153Z,99459.26
2019-01-16T06:22:05.697Z,99464.00
2019-01-16T06:25:05.069Z,99470.01
2019-01-16T06:27:53.278Z,99465.14
2019-01-16T06:30:42.429Z,99472.05
2019-01-16T06:33:21.673Z,99472.13
2019-01-16T06:36:22.423Z,99470.74
2019-01-16T06:39:11.491Z,99475.45
2019-01-16T06:42:03.601Z,99474.10
2019-01-16T06:44:51.521Z,99477.17
2019-01-16T06:47:48.212Z,99470.62
2019-01-16T06:50:40.115Z,99470.59
2019-01-16T06:53:29.495Z,99474.02
2019-01-16T06:56:17.173Z,99468.37
2019-01-16T06:58:55.314Z,99466.74
2019-01-16T07:01:53.669Z,99471.08
2019-01-16T07:04:48.858Z,99466.58
2019-01-16T07:07:36.603Z,99472.22
2019-01-16T07:10:27.053Z,99474.27
2019-01-16T07:13:18.339Z,99473.81
2019-01-16T07:16:01.077Z,99478.02
2019-01-16T07:18:56.197Z,99481.83
2019-01-16T07:21:44.232Z,99480.39
2019-01-16T07:24:42.216Z,99475.97
2019-01-16T07:27:34.317Z,99468.89
2019-01-16T07:30:16.396Z,99468.84
2019-01-16T07:33:11.642Z,99465.78
2019-01-16T07:36:10.524Z,99464.11
2019-01-16T07:39:05.597Z,99458.55
2019-01-16T07:42:03.754Z,99456.42
2019-01-16T07:44:47.222Z,99450.16
2019-01-16T07:47:39.326Z,99445.66
2019-01-16T07:50:18.909Z,99439.02
2019-01-16T07:53:06.889Z,99440.61
2019-01-16T07:55:48.224Z,99440.10
2019-01-16T07:58:36.278Z,99450.84
2019-01-16T08:01:23.597Z,99448.50
2019-01-16T08:04:15.442Z,99438.84
2019-01-16T08:07:10.577Z,99430.08
2019-01-16T08:10:00.238Z,99420.87
2019-01-16T08:12:55.494Z,99413.37
2019-01-16T08:15:50.561Z,99407.63
2019-01-16T08:18:38.798Z,99411.02
2019-01-16T08:21:42.991Z,99406.63
2019-01-16T08:24:30.918Z,99403.02
2019-01-16T08:27:18.734Z,99403.36
2019-01-16T08:30:06.654Z,99401.10
2019-01-16T08:32:58.852Z,99397.89
2019-01-16T08:35:38.751Z,99391.19
2019-01-16T08:38:27.832Z,99397.09
2019-01-16T08:41:29.089Z,99403.96
2019-01-16T08:44:21.808Z,99399.58
2019-01-16T08:47:09.742Z,99390.41
2019-01-16T08:49:58.294Z,99389.59
2019-01-16T08:52:46.898Z,99379.20
2019-01-16T08:55:35.971Z,99383.95
2019-01-16T08:58:37.405Z,99374.17
2019-01-16T09:01:32.618Z,99365.74
2019-01-16T09:04:16.340Z,99360.70
2019-01-16T09:07:20.562Z,99353.95
2019-01-16T09:10:08.096Z,99318.00
2019-01-16T09:12:55.903Z,99344.94
2019-01-16T09:15:47.822Z,99341.54
2019-01-16T09:18:38.008Z,99333.27
2019-01-16T09:21:30.057Z,99323.69
2019-01-16T09:24:15.528Z,99314.80
2019-01-16T09:27:06.879Z,99316.75
2019-01-16T09:30:08.338Z,99322.23
2019-01-16T09:33:03.359Z,99313.16
2019-01-16T09:35:52.451Z,99311.62
2019-01-16T09:38:40.596Z,99306.66
2019-01-16T09:41:38.873Z,99298.66
2019-01-16T09:44:26.730Z,99289.18
2019-01-16T09:47:15.787Z,99293.34
2019-01-16T09:50:08.564Z,99286.27
2019-01-16T09:52:56.612Z,99276.89
2019-01-16T09:55:51.796Z,99271.42
2019-01-16T09:58:39.741Z,99269.41
2019-01-16T10:01:27.516Z,99264.73
2019-01-16T10:04:22.709Z,99256.53
2019-01-16T10:07:01.930Z,99246.70
2019-01-16T10:09:53.952Z,99247.63
2019-01-16T10:12:42.023Z,99253.33
2019-01-16T10:15:35.750Z,99240.58
2019-01-16T10:18:23.677Z,99240.89
2019-01-16T10:21:13.757Z,99233.78
2019-01-16T10:24:01.560Z,99224.49
2019-01-16T10:26:49.555Z,99136.06
2019-01-16T10:29:44.902Z,99216.92
2019-01-16T10:32:27.863Z,99201.92
2019-01-16T10:35:26.345Z,99193.25
2019-01-16T10:38:15.617Z,99179.09
2019-01-16T10:41:13.909Z,99170.81
2019-01-16T10:44:15.193Z,99169.16
2019-01-16T10:47:03.349Z,99173.72
2019-01-16T10:50:04.798Z,99165.81
2019-01-16T10:52:53.584Z,99156.02
2019-01-16T10:55:41.761Z,99145.70
2019-01-16T10:58:29.887Z,99141.17
2019-01-16T11:01:25.057Z,99125.08
2019-01-16T11:04:26.837Z,99120.21
2019-01-16T11:07:18.748Z,99108.74
2019-01-16T11:10:07.860Z,99094.54
2019-01-16T11:13:07.156Z,99088.75
2019-01-16T11:15:54.892Z,99079.73
2019-01-16T11:18:42.945Z,99072.89
2019-01-16T11:21:25.257Z,99060.59
2019-01-16T11:24:13.322Z,99051.53
2019-01-16T11:27:02.396Z,99042.78
2019-01-16T11:30:00.584Z,99031.94
2019-01-16T11:32:48.662Z,99023.88
2019-01-16T11:35:50.262Z,99011.80
2019-01-16T11:38:38.439Z,98999.44
2019-01-16T11:41:14.697Z,98994.23
2019-01-16T11:44:06.863Z,98985.04
2019-01-16T11:47:01.917Z,98982.66
2019-01-16T11:49:54.106Z,98959.14
2019-01-16T11:52:55.352Z,98956.80
2019-01-16T11:55:53.516Z,98946.52
2019-01-16T11:58:45.565Z,98932.69
2019-01-16T12:01:33.558Z,98932.53
2019-01-16T12:04:25.673Z,98928.83
2019-01-16T12:07:03.856Z,98916.52
2019-01-16T12:09:55.928Z,98907.48
2019-01-16T12:12:44.508Z,98895.25
2019-01-16T12:15:33.795Z,98881.13
2019-01-16T12:18:16.006Z,98781.06
2019-01-16T12:20:57.865Z,98856.36
2019-01-16T12:24:05.146Z,98845.83
2019-01-16T12:26:52.032Z,98839.16
2019-01-16T12:29:46.105Z,98833.27
2019-01-16T12:32:35.182Z,98821.27
2019-01-16T12:35:23.693Z,98814.48
2019-01-16T12:38:12.770Z,98808.19
2019-01-16T12:41:09.712Z,98793.41
2019-01-16T12:43:58.788Z,98782.80
2019-01-16T12:46:46.495Z,98770.48
2019-01-16T12:49:41.488Z,98764.89
2019-01-16T12:52:29.176Z,98754.06
2019-01-16T12:55:27.479Z,98739.50
2019-01-16T12:58:22.500Z,98739.16
2019-01-16T13:01:15.954Z,98718.99
2019-01-16T13:03:53.863Z,98715.85
2019-01-16T13:06:41.893Z,98705.82
2019-01-16T13:09:37.045Z,98693.50
2019-01-16T13:12:41.598Z,98685.59
2019-01-16T13:15:39.733Z,98688.45
2019-01-16T13:18:27.781Z,98678.41
2019-01-16T13:21:08.623Z,98668.27
2019-01-16T13:24:00.804Z,98661.21
2019-01-16T13:26:48.881Z,98650.36
2019-01-16T13:29:27.273Z,98645.79
2019-01-16T13:32:15.878Z,98632.22
2019-01-16T13:34:59.943Z,98627.61
2019-01-16T13:37:48.208Z,98616.73
2019-01-16T13:40:36.101Z,98609.30
2019-01-16T13:43:18.106Z,98603.73
2019-01-16T13:46:10.069Z,98591.48
2019-01-16T13:48:59.153Z,98578.19
2019-01-16T13:51:57.068Z,98576.78
2019-01-16T13:54:44.828Z,98564.65
2019-01-16T13:57:49.040Z,98553.23
2019-01-16T14:00:48.593Z,98552.48
2019-01-16T14:03:40.892Z,98537.66
2019-01-16T14:06:33.071Z,98529.37
2019-01-16T14:09:23.380Z,98520.89
2019-01-16T14:12:16.129Z,98511.18
2019-01-16T14:15:03.960Z,98512.50
2019-01-16T14:17:45.248Z,98500.15
2019-01-16T14:20:34.074Z,98482.52
2019-01-16T14:23:24.052Z,98493.16
2019-01-16T14:26:11.230Z,98480.11
2019-01-16T14:29:11.653Z,98465.97
2019-01-16T14:31:51.406Z,98461.43
2019-01-16T14:34:51.736Z,98455.80
2019-01-16T14:37:40.153Z,98450.89
2019-01-16T14:40:32.581Z,98447.00
2019-01-16T14:43:17.967Z,98439.05
2019-01-16T14:45:59.765Z,98438.91
2019-01-16T14:49:00.696Z,98426.15
2019-01-16T14:51:50.712Z,98422.16
2019-01-16T14:54:39.035Z,98413.69
2019-01-16T14:57:34.038Z,98407.05
2019-01-16T15:00:33.140Z,98394.69
2019-01-16T15:03:20.906Z,98383.42
2019-01-16T15:06:22.316Z,98378.20
2019-01-16T15:09:11.392Z,98371.66
2019-01-16T15:11:57.684Z,98364.36
2019-01-16T15:14:41.547Z,98337.80
2019-01-16T15:17:25.271Z,98356.96
2019-01-16T15:20:25.434Z,98349.78
2019-01-16T15:23:14.506Z,98338.58
2019-01-16T15:26:00.782Z,98324.94
2019-01-16T15:28:56.132Z,98311.20
2019-01-16T15:31:43.897Z,98306.75
2019-01-16T15:34:31.750Z,98304.16
2019-01-16T15:37:38.919Z,98296.20
2019-01-16T15:40:30.572Z,98292.98
2019-01-16T15:43:26.563Z,98283.17
2019-01-16T15:46:03.879Z,98273.92
2019-01-16T15:48:52.976Z,98272.34
2019-01-16T15:51:33.996Z,98269.55
2019-01-16T15:54:23.886Z,98261.99
2019-01-16T15:57:17.201Z,98253.41
2019-01-16T16:00:05.504Z,98243.56
2019-01-16T16:02:59.763Z,98243.86
2019-01-16T16:05:48.836Z,98231.81
2019-01-16T16:08:37.910Z,98231.73
2019-01-16T16:11:25.686Z,98221.33
2019-01-16T16:14:17.777Z,98218.13
2019-01-16T16:17:12.923Z,98208.53
2019-01-16T16:20:00.839Z,98209.04
2019-01-16T16:22:55.300Z,98199.78
2019-01-16T16:25:43.031Z,98198.70
2019-01-16T16:28:41.083Z,98198.25
2019-01-16T16:31:33.190Z,98182.70
2019-01-16T16:34:34.678Z,98183.98
2019-01-16T16:37:32.831Z,98178.64
2019-01-16T16:40:22.492Z,98166.13
2019-01-16T16:43:01.108Z,98176.66
2019-01-16T16:45:48.843Z,98168.11
2019-01-16T16:48:49.788Z,98164.53
2019-01-16T16:51:40.261Z,98144.80
2019-01-16T16:54:28.078Z,98144.45
2019-01-16T16:57:10.093Z,98132.18
2019-01-16T16:59:58.059Z,98127.15
2019-01-16T17:02:53.127Z,98124.88
2019-01-16T17:05:46.871Z,98109.00
2019-01-16T17:08:44.987Z,98116.10
2019-01-16T17:11:40.154Z,98097.09
2019-01-16T17:14:28.237Z,98104.23
2019-01-16T17:17:14.624Z,98096.66
2019-01-16T17:20:02.586Z,98090.16
2019-01-16T17:22:50.563Z,98080.53
2019-01-16T17:25:36.063Z,98081.73
2019-01-16T17:28:29.727Z,98070.55
2019-01-16T17:31:17.738Z,98069.25
2019-01-16T17:34:05.670Z,98070.56
2019-01-16T17:37:13.054Z,98065.39
2019-01-16T17:40:00.720Z,98057.58
2019-01-16T17:42:56.735Z,98053.72
2019-01-16T17:45:44.399Z,98054.30
2019-01-16T17:48:35.612Z,98046.23
2019-01-16T17:51:23.628Z,98040.09
2019-01-16T17:54:05.840Z,98024.92
2019-01-16T17:56:53.580Z,98022.50
2019-01-16T17:59:43.062Z,98023.59
2019-01-16T18:02:35.201Z,98017.08
2019-01-16T18:05:24.127Z,98011.06
2019-01-16T18:08:19.297Z,98011.16
2019-01-16T18:11:14.243Z,98002.71
2019-01-16T18:13:55.836Z,97997.18
2019-01-16T18:16:57.317Z,97992.83
2019-01-16T18:19:46.442Z,97990.28
2019-01-16T18:22:33.679Z,97982.69
2019-01-16T18:25:12.298Z,97974.17
2019-01-16T18:28:10.885Z,97970.09
2019-01-16T18:31:15.408Z,97964.17
2019-01-16T18:34:04.511Z,97961.62
2019-01-16T18:37:00.291Z,97955.95
2019-01-16T18:39:48.118Z,97949.09
2019-01-16T18:42:36.179Z,97943.28
2019-01-16T18:45:27.180Z,97937.37
2019-01-16T18:48:08.936Z,97937.02
2019-01-16T18:50:58.876Z,97927.15
2019-01-16T18:53:46.989Z,97925.57
2019-01-16T18:56:34.783Z,97915.33
2019-01-16T18:59:15.937Z,97913.52
2019-01-16T19:02:17.158Z,97909.44
2019-01-16T19:05:04.933Z,97902.20
2019-01-16T19:07:50.774Z,97901.16
2019-01-16T19:10:31.752Z,97906.17
2019-01-16T19:13:16.022Z,97898.56
2019-01-16T19:16:05.106Z,97896.98
2019-01-16T19:19:03.274Z,97895.78
2019-01-16T19:21:45.441Z,97895.61
2019-01-16T19:24:22.939Z,97884.38
2019-01-16T19:27:09.358Z,97879.66
2019-01-16T19:29:47.156Z,97878.37
2019-01-16T19:32:35.881Z,97872.17
2019-01-16T19:35:46.106Z,97874.24
2019-01-16T19:38:33.900Z,97859.47
2019-01-16T19:41:22.103Z,97859.14
2019-01-16T19:44:20.213Z,97854.76
2019-01-16T19:47:24.811Z,97851.27
2019-01-16T19:50:12.755Z,97854.48
2019-01-16T19:53:05.003Z,97841.43
2019-01-16T19:56:03.376Z,97842.33
2019-01-16T19:58:51.363Z,97846.37
2019-01-16T20:01:40.459Z,97835.75
2019-01-16T20:04:42.711Z,97843.44
2019-01-16T20:07:43.671Z,97839.45
2019-01-16T20:10:24.846Z,97826.61
2019-01-16T20:13:07.792Z,97824.24
2019-01-16T20:15:56.911Z,97831.80
2019-01-16T20:18:44.941Z,97822.23
2019-01-16T20:21:33.613Z,97814.06
2019-01-16T20:24:34.952Z,97810.45
2019-01-16T20:27:22.814Z,97806.93
2019-01-16T20:30:04.748Z,97808.50
2019-01-16T20:32:52.869Z,97808.15
2019-01-16T20:35:36.936Z,97803.89
2019-01-16T20:38:21.621Z,97805.98
2019-01-16T20:41:09.378Z,97797.73
2019-01-16T20:44:07.723Z,97797.31
2019-01-16T20:46:49.964Z,97786.83
2019-01-16T20:49:38.070Z,97790.67
2019-01-16T20:52:45.321Z,97785.16
2019-01-16T20:55:46.000Z,97792.08
2019-01-16T20:58:37.520Z,97791.80
2019-01-16T21:01:29.441Z,97791.37
2019-01-16T21:04:17.146Z,97788.52
2019-01-16T21:07:15.597Z,97790.89
2019-01-16T21:10:04.755Z,97791.80
2019-01-16T21:12:52.564Z,97800.60
2019-01-16T21:15:40.492Z,97801.94
2019-01-16T21:18:28.193Z,97796.90
2019-01-16T21:21:35.725Z,97796.72
2019-01-16T21:24:28.023Z,97798.13
2019-01-16T21:27:14.375Z,97801.02
2019-01-16T21:30:05.897Z,97798.30
2019-01-16T21:32:56.760Z,97793.61
2019-01-16T21:35:45.622Z,97800.95
2019-01-16T21:38:39.602Z,97795.85
2019-01-16T21:41:20.576Z,97794.31
2019-01-16T21:44:21.565Z,97799.84
2019-01-16T21:47:10.823Z,97796.69
2019-01-16T21:50:02.944Z,97790.54
2019-01-16T21:52:39.900Z,97794.52
2019-01-16T21:55:25.916Z,97793.41
2019-01-16T21:58:13.700Z,97787.88
2019-01-16T22:01:01.791Z,97790.40
2019-01-16T22:03:49.609Z,97775.79
2019-01-16T22:06:53.849Z,97778.03
2019-01-16T22:09:48.840Z,97775.93
2019-01-16T22:12:43.986Z,97775.23
2019-01-16T22:15:36.754Z,97778.09
2019-01-16T22:18:38.276Z,97765.66
2019-01-16T22:21:27.380Z,97766.84
2019-01-16T22:24:34.667Z,97760.55
2019-01-16T22:27:42.025Z,97761.73
2019-01-16T22:30:42.299Z,97749.57
2019-01-16T22:33:31.380Z,97749.15
2019-01-16T22:36:32.929Z,97741.73
2019-01-16T22:39:34.063Z,97746.20
2019-01-16T22:42:20.470Z,97748.38
2019-01-16T22:45:03.344Z,97738.73
2019-01-16T22:47:58.767Z,97735.86
2019-01-16T22:51:03.313Z,97730.97
2019-01-16T22:53:46.147Z,97724.11
2019-01-16T22:56:38.063Z,97718.45
2019-01-16T22:59:36.230Z,97722.86
2019-01-16T23:02:25.651Z,97723.70
2019-01-16T23:05:09.052Z,97713.50
2019-01-16T23:08:07.315Z,97711.97
2019-01-16T23:11:09.604Z,97709.73
2019-01-16T23:13:53.249Z,97709.04
2019-01-16T23:16:54.384Z,97707.13
2019-01-16T23:19:49.503Z,97700.93
2019-01-16T23:22:38.563Z,97702.45
2019-01-16T23:25:23.511Z,97704.41
2019-01-16T23:28:12.576Z,97716.63
2019-01-16T23:30:55.342Z,97709.36
2019-01-16T23:33:43.347Z,97710.90
2019-01-16T23:36:29.440Z,97713.84
2019-01-16T23:39:14.502Z,97714.74
2019-01-16T23:42:19.156Z,97714.95
2019-01-16T23:45:07.210Z,97713.13
2019-01-16T23:47:49.580Z,97700.23
2019-01-16T23:50:51.013Z,97703.23
2019-01-16T23:53:40.122Z,97695.17
2019-01-16T23:56:29.189Z,97700.13
2019-01-16T23:59:21.434Z,97701.47
